Time;durP1;ratioP1;P1;durP2;ratioP2;P2;SDS_P1;SDS_P2;PMS_P1;PMS_P2;Temp;Humidity;BMP_temperature;BMP_pressure;BME280_temperature;BME280_humidity;BME280_pressure;Samples;Min_cycle;Max_cycle;Signal;HPM_P1;HPM_P2
2023/06/12 00:00:51;;;;;;;;;13.00;11.00;;;;;16.62;48.58;99889.53;5096510;28;8964;-57
2023/06/12 00:03:19;;;;;;;;;16.75;14.50;;;;;16.53;48.25;99889.63;5096175;28;8822;-57
2023/06/12 00:05:46;;;;;;;;;10.50;10.00;;;;;16.45;48.85;99886.91;5096777;28;8822;-57
2023/06/12 00:08:17;;;;;;;;;11.50;10.50;;;;;16.38;48.84;99888.53;5096789;28;8940;-57
2023/06/12 00:10:45;;;;;;;;;12.50;11.00;;;;;16.31;49.04;99891.00;5096166;28;9525;-58
2023/06/12 00:13:13;;;;;;;;;14.00;12.00;;;;;16.28;49.20;99887.78;5096410;28;8814;-59
2023/06/12 00:15:40;;;;;;;;;12.50;10.50;;;;;16.20;49.02;99885.88;5096437;28;8837;-58
2023/06/12 00:18:08;;;;;;;;;15.25;12.50;;;;;16.13;49.36;99892.06;5096465;28;8834;-57
2023/06/12 00:20:36;;;;;;;;;15.75;15.00;;;;;16.06;49.65;99892.84;5096281;28;8842;-57
2023/06/12 00:23:03;;;;;;;;;15.00;13.00;;;;;15.99;49.90;99883.75;5096301;28;8826;-57
2023/06/12 00:25:31;;;;;;;;;14.00;14.00;;;;;15.92;49.58;99894.28;5096489;28;8829;-57
2023/06/12 00:28:01;;;;;;;;;10.00;10.00;;;;;15.83;49.76;99884.47;5095961;28;8830;-57
2023/06/12 00:30:28;;;;;;;;;17.00;15.50;;;;;15.77;49.67;99886.94;5095268;28;8818;-57
2023/06/12 00:32:56;;;;;;;;;12.50;12.25;;;;;15.72;50.21;99890.13;5095897;28;8885;-57
2023/06/12 00:35:24;;;;;;;;;13.00;12.00;;;;;15.70;49.74;99885.88;5096404;28;8929;-57
2023/06/12 00:37:52;;;;;;;;;11.00;8.75;;;;;15.67;50.42;99886.19;5096091;28;8913;-57
2023/06/12 00:40:20;;;;;;;;;12.25;12.00;;;;;15.65;50.33;99885.50;5096381;28;8822;-57
2023/06/12 00:42:47;;;;;;;;;11.00;9.50;;;;;15.65;50.47;99888.19;5097096;28;8826;-56
2023/06/12 00:45:15;;;;;;;;;10.25;10.25;;;;;15.64;49.63;99881.13;5096544;28;8818;-57
2023/06/12 00:47:43;;;;;;;;;9.50;9.25;;;;;15.64;50.19;99876.59;5096394;28;9538;-57
2023/06/12 00:50:12;;;;;;;;;11.50;10.50;;;;;15.65;49.89;99880.13;5096385;28;8903;-57
2023/06/12 00:52:41;;;;;;;;;15.25;13.50;;;;;15.66;49.81;99879.13;5094887;28;8833;-56
2023/06/12 00:55:09;;;;;;;;;10.75;10.50;;;;;15.67;49.88;99878.13;5099781;28;8936;-56
2023/06/12 00:57:36;;;;;;;;;12.75;12.50;;;;;15.67;50.17;99878.13;5100629;28;9503;-57
2023/06/12 01:00:06;;;;;;;;;12.00;12.00;;;;;15.68;50.07;99874.44;5099842;28;8826;-59
2023/06/12 01:02:39;;;;;;;;;14.75;13.50;;;;;15.68;50.21;99879.81;5099914;28;8858;-61
2023/06/12 01:05:07;;;;;;;;;11.00;11.00;;;;;15.67;49.94;99878.13;5100023;28;8873;-61
2023/06/12 01:07:34;;;;;;;;;10.75;10.00;;;;;15.64;50.10;99878.44;5100272;28;8836;-59
2023/06/12 01:10:02;;;;;;;;;14.00;10.50;;;;;15.58;50.07;99871.00;5099603;28;8826;-59
2023/06/12 01:12:30;;;;;;;;;12.00;10.00;;;;;15.51;50.62;99876.16;5100093;28;9515;-60
2023/06/12 01:14:59;;;;;;;;;12.25;11.50;;;;;15.45;50.09;99875.94;5100320;28;8825;-61
2023/06/12 01:17:27;;;;;;;;;12.25;11.00;;;;;15.39;50.20;99871.19;5099870;28;8818;-60
2023/06/12 01:19:56;;;;;;;;;12.50;11.50;;;;;15.32;50.59;99872.81;5099862;28;8834;-61
2023/06/12 01:22:24;;;;;;;;;8.50;7.00;;;;;15.26;50.92;99868.84;5099872;28;8818;-60
2023/06/12 01:24:53;;;;;;;;;13.50;12.50;;;;;15.22;50.97;99863.94;5099934;28;8830;-59
2023/06/12 01:27:21;;;;;;;;;12.50;12.25;;;;;15.18;50.97;99865.25;5099775;28;8840;-59
2023/06/12 01:29:48;;;;;;;;;15.50;12.50;;;;;15.17;50.56;99874.31;5099224;28;8836;-60
2023/06/12 01:32:16;;;;;;;;;14.00;11.00;;;;;15.16;50.57;99875.31;5099346;28;8834;-61
2023/06/12 01:34:50;;;;;;;;;13.00;12.00;;;;;15.13;51.31;99870.22;5099826;28;8826;-60
2023/06/12 01:37:18;;;;;;;;;11.50;10.00;;;;;15.08;50.98;99870.69;5099441;28;8838;-61
2023/06/12 01:39:46;;;;;;;;;13.00;12.00;;;;;15.04;51.34;99863.09;5099406;28;8830;-60
2023/06/12 01:42:14;;;;;;;;;14.00;12.00;;;;;15.01;51.22;99860.72;5099378;28;8902;-61
2023/06/12 01:44:41;;;;;;;;;13.50;12.00;;;;;14.98;50.83;99859.19;5099948;28;8823;-59
2023/06/12 01:47:09;;;;;;;;;15.00;13.00;;;;;14.96;51.20;99858.47;5099891;28;9535;-61
2023/06/12 01:49:36;;;;;;;;;18.50;16.50;;;;;14.96;50.94;99854.97;5099316;28;8810;-61
2023/06/12 01:52:05;;;;;;;;;18.00;15.00;;;;;14.96;51.58;99857.66;5099228;28;8826;-60
2023/06/12 01:54:33;;;;;;;;;11.33;11.33;;;;;14.96;51.45;99854.97;5099385;28;8829;-62
2023/06/12 01:57:02;;;;;;;;;12.75;12.00;;;;;14.96;50.95;99850.44;5099265;28;8900;-61
2023/06/12 01:59:29;;;;;;;;;17.00;15.00;;;;;14.98;50.98;99852.97;5099062;28;8968;-59
2023/06/12 02:01:57;;;;;;;;;7.00;7.00;;;;;15.00;51.09;99859.03;5098912;28;8846;-60
2023/06/12 02:04:27;;;;;;;;;11.00;10.25;;;;;15.00;51.17;99856.34;5098885;28;8814;-61
2023/06/12 02:06:55;;;;;;;;;12.50;12.50;;;;;15.01;51.13;99858.06;5098959;28;8826;-61
2023/06/12 02:09:23;;;;;;;;;14.50;14.00;;;;;15.00;51.79;99854.50;5098793;28;8861;-61
2023/06/12 02:11:50;;;;;;;;;8.50;7.00;;;;;15.00;51.43;99851.84;5098626;28;8871;-62
2023/06/12 02:14:18;;;;;;;;;12.00;12.00;;;;;14.99;51.29;99858.19;5098973;28;8837;-59
2023/06/12 02:16:47;;;;;;;;;9.75;9.25;;;;;14.99;51.41;99854.66;5098808;28;8822;-59
2023/06/12 02:22:00;;;;;;;;;12.00;10.50;;;;;14.95;51.67;99858.66;5098659;28;8861;-58
2023/06/12 02:24:28;;;;;;;;;17.50;14.00;;;;;14.94;51.70;99846.25;5098197;28;8834;-59
2023/06/12 02:26:56;;;;;;;;;15.75;15.75;;;;;14.93;51.65;99858.78;5099107;28;8815;-58
2023/06/12 02:29:23;;;;;;;;;17.00;13.25;;;;;14.92;51.41;99858.94;5098751;28;8837;-59
2023/06/12 02:31:51;;;;;;;;;19.25;15.50;;;;;14.89;51.61;99853.88;5098294;28;8843;-59
2023/06/12 02:34:19;;;;;;;;;23.00;20.50;;;;;14.87;51.80;99862.06;5097978;28;8838;-59
2023/06/12 02:36:46;;;;;;;;;24.00;22.00;;;;;14.85;51.56;99857.84;5098194;28;8838;-59
2023/06/12 02:39:14;;;;;;;;;21.00;19.50;;;;;14.83;51.68;99866.06;5098249;28;8822;-57
2023/06/12 02:41:42;;;;;;;;;19.00;18.50;;;;;14.83;51.42;99868.75;5098037;28;8830;-58
2023/06/12 02:44:10;;;;;;;;;22.50;20.75;;;;;14.83;51.91;99865.22;5098594;28;8830;-58
2023/06/12 02:46:37;;;;;;;;;19.00;17.00;;;;;14.81;51.86;99865.34;5097879;28;8832;-59
2023/06/12 02:49:05;;;;;;;;;21.50;19.00;;;;;14.81;51.48;99861.84;5097852;28;8811;-59
2023/06/12 02:51:33;;;;;;;;;18.75;15.50;;;;;14.80;51.52;99863.66;5098196;28;8811;-59
2023/06/12 02:54:00;;;;;;;;;12.50;12.50;;;;;14.80;51.42;99863.66;5078346;28;8824;-59
2023/06/12 02:56:28;;;;;;;;;13.50;12.25;;;;;14.80;51.95;99866.34;5077972;28;8886;-58
2023/06/12 02:58:56;;;;;;;;;15.00;13.00;;;;;14.81;51.89;99864.53;5077937;28;8827;-59
2023/06/12 03:01:25;;;;;;;;;17.00;15.00;;;;;14.81;51.72;99869.88;5077776;28;8855;-59
2023/06/12 03:03:56;;;;;;;;;12.25;12.00;;;;;14.80;51.82;99866.34;5078094;28;8848;-58
2023/06/12 03:06:28;;;;;;;;;15.25;12.75;;;;;14.79;51.91;99870.03;5077809;28;8824;-59
2023/06/12 03:08:56;;;;;;;;;9.00;9.00;;;;;14.79;51.99;99864.66;5077269;28;8839;-59
2023/06/12 03:11:24;;;;;;;;;12.50;11.25;;;;;14.79;51.88;99869.19;5076963;28;8820;-59
2023/06/12 03:13:51;;;;;;;;;13.50;13.00;;;;;14.78;51.51;99875.53;5076919;28;8830;-58
2023/06/12 03:16:20;;;;;;;;;11.50;11.50;;;;;14.78;51.54;99872.84;5076468;28;8836;-59
2023/06/12 03:18:48;;;;;;;;;12.50;11.00;;;;;14.78;51.86;99878.22;5077311;28;8816;-60
2023/06/12 03:21:16;;;;;;;;;15.75;13.00;;;;;14.78;52.14;99883.56;5076848;28;8844;-57
2023/06/12 03:23:50;;;;;;;;;8.00;7.75;;;;;14.76;51.65;99873.03;5094506;28;8842;-58
2023/06/12 03:26:17;;;;;;;;;12.25;12.25;;;;;14.79;52.11;99878.06;5097973;28;8859;-57
2023/06/12 03:28:45;;;;;;;;;13.00;11.00;;;;;14.79;52.04;99879.94;5097578;28;9510;-59
2023/06/12 03:31:13;;;;;;;;;17.25;16.25;;;;;14.78;51.39;99879.06;5097461;28;8830;-59
2023/06/12 03:33:41;;;;;;;;;18.50;17.25;;;;;14.75;51.98;99873.16;5097514;28;8837;-60
2023/06/12 03:36:08;;;;;;;;;21.75;18.00;;;;;14.72;52.13;99874.31;5097445;28;9515;-58
2023/06/12 03:38:36;;;;;;;;;18.00;16.00;;;;;14.70;52.56;99884.34;5097321;28;9534;-57
2023/06/12 03:41:04;;;;;;;;;18.00;17.50;;;;;14.69;51.92;99881.78;5096346;28;8810;-58
2023/06/12 03:43:31;;;;;;;;;17.00;15.50;;;;;14.70;52.23;99883.47;5097357;28;8918;-58
2023/06/12 03:45:59;;;;;;;;;17.00;16.50;;;;;14.67;52.47;99887.31;5096833;28;8853;-57
2023/06/12 03:48:27;;;;;;;;;17.00;13.50;;;;;14.67;52.55;99889.16;5096843;28;8850;-57
2023/06/12 03:50:54;;;;;;;;;12.75;12.50;;;;;14.68;52.58;99882.78;5097128;28;8942;-59
2023/06/12 03:53:22;;;;;;;;;10.00;10.00;;;;;14.69;52.46;99879.97;5096897;28;8806;-59
2023/06/12 03:55:50;;;;;;;;;17.50;16.75;;;;;14.73;52.56;99885.88;5096883;28;8841;-57
2023/06/12 03:58:18;;;;;;;;;13.00;11.50;;;;;14.76;51.99;99885.56;5096885;28;8853;-59
2023/06/12 04:00:47;;;;;;;;;14.00;12.00;;;;;14.81;52.35;99878.75;5096518;28;8849;-58
2023/06/12 04:03:17;;;;;;;;;18.50;16.50;;;;;14.86;52.02;99883.69;5096407;28;8842;-59
2023/06/12 04:05:47;;;;;;;;;18.75;17.00;;;;;14.93;51.39;99877.56;5096933;28;8825;-58
2023/06/12 04:08:16;;;;;;;;;17.00;15.75;;;;;14.99;51.81;99876.97;5096303;28;8838;-58
2023/06/12 04:10:44;;;;;;;;;19.25;17.25;;;;;15.06;51.52;99886.09;5096256;28;9448;-57
2023/06/12 04:13:11;;;;;;;;;18.50;16.00;;;;;15.12;51.63;99887.31;5096421;28;8830;-58
2023/06/12 04:15:39;;;;;;;;;18.25;18.00;;;;;15.20;51.49;99884.72;5096056;28;8814;-59
2023/06/12 04:18:09;;;;;;;;;20.75;19.25;;;;;15.31;51.30;99887.19;5095779;28;8810;-57
2023/06/12 04:20:38;;;;;;;;;16.50;15.00;;;;;15.42;51.33;99885.16;5095612;28;8834;-56
2023/06/12 04:23:11;;;;;;;;;20.00;18.00;;;;;15.52;50.91;99888.59;5094160;28;8980;-58
2023/06/12 04:25:42;;;;;;;;;15.75;14.00;;;;;15.60;51.03;99885.13;5096155;28;8876;-56
2023/06/12 04:28:13;;;;;;;;;18.50;17.00;;;;;15.67;50.85;99883.50;5095944;28;8821;-59
2023/06/12 04:30:41;;;;;;;;;16.50;16.00;;;;;15.76;50.60;99882.59;5095853;28;8838;-59
2023/06/12 04:33:10;;;;;;;;;15.50;15.00;;;;;15.84;50.73;99879.97;5095884;28;8842;-59
2023/06/12 04:35:38;;;;;;;;;16.50;15.75;;;;;15.94;50.32;99886.06;5096136;28;8899;-58
2023/06/12 04:38:06;;;;;;;;;15.75;14.00;;;;;16.01;50.78;99882.56;5096246;28;8864;-59
2023/06/12 04:40:36;;;;;;;;;16.75;15.00;;;;;16.08;50.50;99880.13;5096243;28;8830;-59
2023/06/12 04:43:05;;;;;;;;;12.50;12.50;;;;;16.11;50.81;99877.97;5096076;28;8838;-59
2023/06/12 04:45:34;;;;;;;;;13.25;12.75;;;;;16.17;50.28;99876.47;5097158;28;8918;-60
2023/06/12 04:48:02;;;;;;;;;15.25;14.00;;;;;16.19;50.49;99878.84;5095873;28;8826;-58
2023/06/12 04:50:32;;;;;;;;;12.00;12.00;;;;;16.26;50.47;99876.38;5095866;28;8858;-58
2023/06/12 04:53:00;;;;;;;;;17.00;15.25;;;;;16.38;50.74;99874.28;5095335;28;8834;-59
2023/06/12 04:55:28;;;;;;;;;9.50;8.00;;;;;16.43;50.48;99876.34;5094526;28;8840;-58
2023/06/12 04:57:57;;;;;;;;;12.25;12.00;;;;;16.45;50.05;99871.63;5094351;28;8822;-58
2023/06/12 05:00:25;;;;;;;;;11.50;10.50;;;;;16.50;50.20;99869.28;5094831;28;9522;-57
2023/06/12 05:02:54;;;;;;;;;20.00;16.00;;;;;16.53;50.21;99881.56;5094239;28;9524;-58
2023/06/12 05:05:22;;;;;;;;;13.50;12.25;;;;;16.54;50.57;99877.88;5095467;28;8868;-57
2023/06/12 05:07:50;;;;;;;;;16.00;16.00;;;;;16.61;50.65;99881.59;5095017;28;8818;-58
2023/06/12 05:10:17;;;;;;;;;16.00;15.75;;;;;16.64;50.15;99882.13;5095287;28;8830;-58
2023/06/12 05:12:45;;;;;;;;;16.00;13.50;;;;;16.70;50.32;99886.03;5094856;28;8857;-58
2023/06/12 05:15:13;;;;;;;;;16.00;12.75;;;;;16.78;50.00;99886.88;5095248;28;8830;-58
2023/06/12 05:17:41;;;;;;;;;11.50;9.50;;;;;16.92;49.64;99886.28;5095036;28;8968;-58
2023/06/12 05:20:09;;;;;;;;;8.75;8.75;;;;;17.09;49.82;99882.59;5094517;28;8853;-57
2023/06/12 05:22:37;;;;;;;;;15.75;15.75;;;;;17.29;49.78;99891.22;5093577;28;8960;-58
2023/06/12 05:25:05;;;;;;;;;16.75;14.50;;;;;17.51;48.98;99883.38;5094746;28;8818;-58
2023/06/12 05:27:33;;;;;;;;;13.00;13.00;;;;;17.73;49.13;99889.94;5094046;28;8833;-57
2023/06/12 05:30:01;;;;;;;;;17.50;15.75;;;;;17.92;48.20;99886.94;5094060;28;8833;-57
2023/06/12 05:32:28;;;;;;;;;15.50;15.00;;;;;18.10;48.61;99880.34;5093852;28;8855;-58
2023/06/12 05:34:56;;;;;;;;;13.25;13.25;;;;;18.25;48.53;99889.41;5093737;28;9004;-56
2023/06/12 05:37:24;;;;;;;;;12.50;12.50;;;;;18.38;48.31;99884.31;5094136;28;8840;-59
2023/06/12 05:39:51;;;;;;;;;17.00;16.75;;;;;18.56;47.79;99892.19;5094933;28;8868;-56
2023/06/12 05:42:19;;;;;;;;;16.50;16.25;;;;;18.70;48.04;99886.94;5096803;28;8923;-57
2023/06/12 05:44:47;;;;;;;;;15.50;13.50;;;;;18.86;47.78;99883.31;5098106;28;8845;-60
2023/06/12 05:47:15;;;;;;;;;15.50;12.50;;;;;18.99;47.41;99889.00;5096618;28;8862;-58
2023/06/12 05:49:43;;;;;;;;;12.00;12.00;;;;;19.08;47.21;99877.97;5096970;28;8872;-58
2023/06/12 05:52:11;;;;;;;;;15.00;14.50;;;;;19.22;47.50;99888.06;5096197;28;8848;-60
2023/06/12 05:54:39;;;;;;;;;14.00;13.50;;;;;19.38;47.61;99889.78;5096578;28;8802;-59
2023/06/12 05:57:08;;;;;;;;;16.00;15.80;;;;;19.51;46.86;99888.16;5096902;28;8834;-57
2023/06/12 05:59:38;;;;;;;;;16.00;15.80;;;;;19.59;46.83;99880.03;5096908;28;8837;-57
2023/06/12 06:02:05;;;;;;;;;13.20;13.20;;;;;19.71;46.93;99886.66;5096017;28;8826;-58
2023/06/12 06:04:33;;;;;;;;;16.00;14.80;;;;;19.83;47.45;99887.94;5096888;28;9641;-57
2023/06/12 06:07:01;;;;;;;;;19.80;16.00;;;;;19.93;47.01;99888.50;5096069;28;8834;-59
2023/06/12 06:09:44;;;;;;;;;17.00;16.40;;;;;20.09;47.04;99890.28;5096779;28;8911;-59
2023/06/12 06:12:12;;;;;;;;;19.00;16.00;;;;;20.23;46.98;99884.88;5096776;28;8826;-59
2023/06/12 06:14:39;;;;;;;;;13.00;12.20;;;;;20.36;46.59;99895.91;5097024;28;8837;-58
2023/06/12 06:17:08;;;;;;;;;15.60;14.00;;;;;20.52;46.31;99897.56;5096698;28;8826;-60
2023/06/12 06:19:36;;;;;;;;;17.20;16.80;;;;;20.67;46.47;99898.41;5096654;28;8915;-59
2023/06/12 06:22:04;;;;;;;;;15.20;13.60;;;;;20.79;46.42;99905.88;5096626;28;8837;-59
2023/06/12 06:24:32;;;;;;;;;14.20;13.60;;;;;20.93;45.70;99907.75;5096694;28;8935;-57
2023/06/12 06:27:01;;;;;;;;;10.00;9.60;;;;;21.10;45.82;99903.84;5096694;28;9001;-57
2023/06/12 06:29:29;;;;;;;;;12.60;12.00;;;;;21.24;45.65;99901.06;5096239;28;8829;-59
2023/06/12 06:31:57;;;;;;;;;14.60;14.60;;;;;21.40;45.88;99910.84;5096918;28;8838;-58
2023/06/12 06:34:26;;;;;;;;;17.00;15.00;;;;;21.54;45.23;99904.50;5097343;28;8826;-60
2023/06/12 06:36:53;;;;;;;;;16.80;15.00;;;;;21.66;44.89;99905.72;5096895;28;8870;-57
2023/06/12 06:39:22;;;;;;;;;12.20;11.00;;;;;21.80;45.33;99907.53;5096826;28;8876;-60
2023/06/12 06:41:50;;;;;;;;;18.40;17.60;;;;;21.94;45.19;99903.91;5095946;28;9598;-58
2023/06/12 06:44:18;;;;;;;;;11.20;10.60;;;;;22.12;44.41;99901.56;5096758;28;8904;-58
2023/06/12 06:46:46;;;;;;;;;14.60;12.00;;;;;22.27;44.78;99908.56;5095958;28;8845;-59
2023/06/12 06:49:13;;;;;;;;;15.00;15.00;;;;;22.39;45.07;99901.56;5096208;28;8814;-60
2023/06/12 06:51:41;;;;;;;;;18.60;15.60;;;;;22.52;44.62;99906.25;5095367;28;8846;-60
2023/06/12 06:54:09;;;;;;;;;13.20;13.20;;;;;22.67;44.20;99893.41;5096403;28;8837;-58
2023/06/12 06:56:37;;;;;;;;;15.00;13.60;;;;;22.82;44.37;99897.69;5096436;28;8980;-59
2023/06/12 06:59:05;;;;;;;;;14.20;13.00;;;;;22.96;44.36;99901.28;5096319;28;8870;-60
2023/06/12 07:01:34;;;;;;;;;16.60;15.40;;;;;23.11;43.87;99894.69;5094666;28;8973;-59
2023/06/12 07:04:02;;;;;;;;;15.80;13.80;;;;;23.24;43.96;99894.78;5094981;28;8870;-59
2023/06/12 07:06:31;;;;;;;;;15.00;14.20;;;;;23.41;43.75;99897.94;5095164;28;8833;-59
2023/06/12 07:08:59;;;;;;;;;16.60;15.40;;;;;23.55;43.66;99897.78;5094908;28;8838;-58
2023/06/12 07:11:27;;;;;;;;;15.80;13.80;;;;;23.68;43.69;99896.97;5095306;28;8837;-58
2023/06/12 07:13:55;;;;;;;;;20.60;17.80;;;;;23.77;43.35;99895.72;5094848;28;8846;-58
2023/06/12 07:16:23;;;;;;;;;4.00;3.60;;;;;23.85;43.25;99898.25;5095606;28;8845;-58
2023/06/12 07:18:52;;;;;;;;;13.60;13.00;;;;;23.87;43.72;99896.16;5095964;28;8830;-59
2023/06/12 07:21:20;;;;;;;;;15.20;15.20;;;;;23.92;43.17;99893.69;5095953;28;9000;-58
2023/06/12 07:23:49;;;;;;;;;12.60;12.60;;;;;23.95;43.27;99887.81;5095810;28;8838;-60
2023/06/12 07:26:17;;;;;;;;;15.00;14.20;;;;;24.00;43.30;99886.16;5096107;28;8830;-58
2023/06/12 07:28:55;;;;;;;;;17.20;15.80;;;;;24.08;43.66;99890.53;5095808;28;8822;-60
2023/06/12 07:31:27;;;;;;;;;5.80;5.80;;;;;24.17;43.32;99883.81;5095852;28;8841;-59
2023/06/12 07:33:55;;;;;;;;;14.60;14.40;;;;;24.29;43.12;99890.31;5095961;28;8842;-58
2023/06/12 07:36:23;;;;;;;;;14.20;14.20;;;;;24.39;42.84;99890.72;5094828;28;8841;-59
2023/06/12 07:38:51;;;;;;;;;14.80;14.20;;;;;24.41;42.90;99885.91;5094280;28;8926;-58
2023/06/12 07:41:20;;;;;;;;;14.40;13.80;;;;;24.41;43.75;99885.91;5094374;28;8834;-58
2023/06/12 07:43:48;;;;;;;;;17.80;17.20;;;;;24.42;43.24;99884.88;5094440;28;8814;-59
2023/06/12 07:46:16;;;;;;;;;17.60;14.80;;;;;24.48;43.20;99887.56;5094964;28;8960;-60
2023/06/12 07:48:44;;;;;;;;;15.00;14.00;;;;;24.63;42.74;99887.34;5095032;28;8846;-59
2023/06/12 07:51:12;;;;;;;;;15.20;14.80;;;;;24.74;43.45;99889.44;5095533;28;8837;-59
2023/06/12 07:53:42;;;;;;;;;11.00;11.00;;;;;24.84;42.61;99885.22;5095188;28;8821;-60
2023/06/12 07:56:11;;;;;;;;;13.00;12.20;;;;;24.97;42.67;99885.19;5095399;28;8826;-59
2023/06/12 07:58:40;;;;;;;;;16.80;16.00;;;;;25.10;42.59;99885.09;5095652;28;9581;-58
2023/06/12 08:01:07;;;;;;;;;12.60;11.40;;;;;25.21;42.73;99883.59;5095442;28;8826;-60
2023/06/12 08:03:38;;;;;;;;;15.40;14.40;;;;;25.29;42.71;99881.50;5095667;28;8876;-59
2023/06/12 08:06:08;;;;;;;;;15.80;15.20;;;;;25.38;42.12;99882.06;5095263;28;8814;-59
2023/06/12 08:08:36;;;;;;;;;16.00;15.00;;;;;25.46;42.71;99871.72;5095196;28;8963;-58
2023/06/12 08:11:04;;;;;;;;;17.60;16.40;;;;;25.57;42.65;99871.06;5095149;28;8834;-61
2023/06/12 08:13:34;;;;;;;;;15.60;14.20;;;;;25.64;42.65;99869.94;5094677;28;8826;-57
2023/06/12 08:16:02;;;;;;;;;14.20;12.80;;;;;25.74;42.48;99870.28;5095310;28;9071;-58
2023/06/12 08:18:30;;;;;;;;;15.60;14.00;;;;;25.82;42.13;99864.53;5094691;28;8976;-58
2023/06/12 08:20:58;;;;;;;;;18.00;17.20;;;;;25.96;41.92;99865.34;5094576;28;8833;-58
2023/06/12 08:23:26;;;;;;;;;15.60;14.20;;;;;26.05;42.03;99864.81;5094708;28;8838;-58
2023/06/12 08:25:54;;;;;;;;;19.40;16.40;;;;;26.16;41.59;99860.53;5094473;28;8834;-60
2023/06/12 08:28:22;;;;;;;;;18.20;17.00;;;;;26.26;41.89;99864.41;5094170;28;8875;-58
2023/06/12 08:30:50;;;;;;;;;13.40;13.40;;;;;26.36;42.02;99855.72;5094233;28;8852;-58
2023/06/12 08:33:20;;;;;;;;;8.00;8.00;;;;;26.42;41.87;99861.09;5094284;28;8842;-60
2023/06/12 08:35:48;;;;;;;;;18.20;16.00;;;;;26.51;41.40;99857.03;5094465;28;8842;-59
2023/06/12 08:38:16;;;;;;;;;15.00;13.60;;;;;26.53;41.48;99857.66;5094055;28;8830;-58
2023/06/12 08:40:44;;;;;;;;;15.20;14.40;;;;;26.54;41.22;99856.59;5093993;28;8845;-58
2023/06/12 08:43:12;;;;;;;;;12.00;11.60;;;;;26.61;41.43;99860.09;5094308;28;8894;-58
2023/06/12 08:45:40;;;;;;;;;13.40;13.20;;;;;26.73;41.25;99847.34;5096503;28;8849;-58
2023/06/12 08:48:08;;;;;;;;;16.00;16.00;;;;;26.87;41.07;99848.84;5094613;28;8853;-58
2023/06/12 08:50:36;;;;;;;;;17.80;16.40;;;;;27.03;41.14;99837.28;5094824;28;9075;-58
2023/06/12 08:53:05;;;;;;;;;14.20;13.80;;;;;27.16;40.96;99839.91;5093783;28;8825;-58
2023/06/12 08:55:39;;;;;;;;;12.60;11.60;;;;;27.33;40.58;99838.16;5094206;28;8898;-58
2023/06/12 08:58:07;;;;;;;;;17.00;15.60;;;;;27.48;40.52;99833.09;5094929;28;8826;-58
2023/06/12 09:00:36;;;;;;;;;15.00;13.20;;;;;27.59;40.77;99835.06;5095164;28;8944;-58
2023/06/12 09:03:04;;;;;;;;;19.00;17.80;;;;;27.61;40.31;99838.41;5094493;28;8946;-59
2023/06/12 09:05:33;;;;;;;;;22.20;21.60;;;;;27.64;40.38;99837.09;5094128;28;8833;-59
2023/06/12 09:08:02;;;;;;;;;16.80;15.00;;;;;27.70;40.10;99834.25;5094546;28;8837;-57
2023/06/12 09:10:31;;;;;;;;;13.80;13.60;;;;;27.74;40.26;99834.63;5094818;28;8845;-58
2023/06/12 09:13:02;;;;;;;;;12.80;12.60;;;;;27.90;40.06;99833.97;5094594;28;8834;-58
2023/06/12 09:15:30;;;;;;;;;15.60;15.00;;;;;28.05;39.69;99826.97;5097650;28;9523;-58
2023/06/12 09:17:58;;;;;;;;;15.60;14.00;;;;;28.16;39.29;99823.38;5098114;28;8956;-58
2023/06/12 09:20:27;;;;;;;;;16.40;14.80;;;;;28.27;39.27;99825.31;5098628;28;8948;-58
2023/06/12 09:22:59;;;;;;;;;13.20;11.80;;;;;28.43;38.82;99819.13;5097771;28;8774;-58
2023/06/12 09:25:27;;;;;;;;;17.80;17.40;;;;;28.65;38.90;99822.06;5097550;28;9031;-58
2023/06/12 09:27:55;;;;;;;;;20.80;19.20;;;;;28.88;38.49;99819.28;5098077;28;8834;-58
2023/06/12 09:30:23;;;;;;;;;27.20;25.80;;;;;29.05;37.91;99829.28;5097039;28;8829;-58
2023/06/12 09:32:51;;;;;;;;;11.40;11.00;;;;;29.21;37.59;99823.00;5097309;28;8858;-57
2023/06/12 09:35:20;;;;;;;;;18.20;17.00;;;;;29.42;37.50;99824.25;5097442;28;8925;-57
2023/06/12 09:37:48;;;;;;;;;17.00;16.20;;;;;29.61;37.28;99817.47;5096442;28;8875;-59
2023/06/12 09:40:16;;;;;;;;;15.80;15.80;;;;;29.82;37.12;99819.50;5096782;28;8834;-59
2023/06/12 09:42:44;;;;;;;;;15.40;15.20;;;;;30.05;36.35;99833.91;5097176;28;8841;-57
2023/06/12 09:45:12;;;;;;;;;17.00;15.00;;;;;30.25;36.57;99826.00;5096095;28;8837;-59
2023/06/12 09:47:41;;;;;;;;;13.60;13.00;;;;;30.42;36.43;99826.00;5097169;28;8842;-60
2023/06/12 09:50:10;;;;;;;;;17.60;16.20;;;;;30.53;36.07;99823.13;5097153;28;8864;-59
2023/06/12 09:52:40;;;;;;;;;13.60;12.40;;;;;30.65;35.37;99826.66;5096946;28;8961;-60
2023/06/12 09:55:08;;;;;;;;;18.00;17.60;;;;;30.67;35.69;99829.13;5096732;28;8829;-58
2023/06/12 09:57:37;;;;;;;;;15.80;13.80;;;;;30.70;35.52;99823.94;5097240;28;9588;-58
2023/06/12 10:00:07;;;;;;;;;13.40;13.20;;;;;30.83;35.30;99829.91;5097476;28;8850;-60
2023/06/12 10:02:35;;;;;;;;;13.00;12.00;;;;;31.08;34.70;99827.47;5096934;28;8888;-59
2023/06/12 10:05:03;;;;;;;;;14.20;14.00;;;;;31.49;34.32;99817.78;5096391;28;8984;-61
2023/06/12 10:07:31;;;;;;;;;10.80;10.20;;;;;31.90;33.94;99830.88;5096614;28;8818;-59
2023/06/12 10:09:59;;;;;;;;;15.00;14.80;;;;;32.25;33.78;99825.69;5095420;28;8972;-58
2023/06/12 10:12:27;;;;;;;;;13.80;13.40;;;;;32.53;32.81;99825.31;5096640;28;8868;-58
2023/06/12 10:14:56;;;;;;;;;15.20;14.80;;;;;32.76;32.95;99825.72;5096478;28;8826;-59
2023/06/12 10:17:24;;;;;;;;;12.00;12.00;;;;;32.57;33.46;99842.97;5096468;28;8830;-61
2023/06/12 10:19:52;;;;;;;;;16.80;15.80;;;;;32.03;34.06;99835.94;5096987;28;8918;-59
2023/06/12 10:22:20;;;;;;;;;14.80;14.40;;;;;31.60;34.35;99831.41;5096482;28;9039;-61
2023/06/12 10:24:49;;;;;;;;;14.80;14.60;;;;;31.27;34.98;99828.00;5096872;28;8838;-58
2023/06/12 10:27:17;;;;;;;;;21.60;20.00;;;;;31.05;35.46;99822.47;5096479;28;8976;-60
2023/06/12 10:29:45;;;;;;;;;15.60;14.60;;;;;30.97;35.24;99816.59;5095551;28;8854;-58
2023/06/12 10:32:13;;;;;;;;;14.20;14.00;;;;;30.72;35.33;99823.69;5095178;28;8838;-60
2023/06/12 10:34:41;;;;;;;;;19.80;17.60;;;;;30.48;35.48;99819.50;5095839;28;8923;-60
2023/06/12 10:37:10;;;;;;;;;13.60;13.60;;;;;30.34;36.16;99818.19;5095890;28;8829;-59
2023/06/12 10:39:41;;;;;;;;;14.80;14.60;;;;;30.25;36.10;99815.00;5095992;28;8841;-59
2023/06/12 10:42:12;;;;;;;;;12.60;12.00;;;;;30.14;36.13;99813.22;5097277;28;8849;-60
2023/06/12 10:44:41;;;;;;;;;19.20;17.00;;;;;29.99;35.96;99810.19;5096516;28;8842;-59
2023/06/12 10:47:09;;;;;;;;;17.00;15.60;;;;;29.84;36.57;99811.84;5095770;28;8834;-60
2023/06/12 10:49:37;;;;;;;;;13.00;11.20;;;;;29.63;36.27;99805.16;5096498;28;9548;-58
2023/06/12 10:52:06;;;;;;;;;13.60;13.00;;;;;29.45;36.66;99808.13;5096771;28;8822;-58
2023/06/12 10:54:36;;;;;;;;;13.20;12.60;;;;;29.68;35.82;99808.00;5095977;28;8834;-59
2023/06/12 10:57:04;;;;;;;;;17.40;16.20;;;;;30.62;34.73;99799.63;5095200;28;8864;-60
2023/06/12 10:59:32;;;;;;;;;14.00;13.60;;;;;31.72;33.26;99799.00;5093444;28;8934;-61
2023/06/12 11:02:00;;;;;;;;;17.80;15.60;;;;;32.73;31.54;99798.69;5093687;28;8884;-58
2023/06/12 11:04:29;;;;;;;;;9.60;8.80;;;;;33.53;31.10;99798.13;5093968;28;8842;-59
2023/06/12 11:06:57;;;;;;;;;16.80;14.20;;;;;34.22;30.32;99790.97;5093994;28;8926;-59
2023/06/12 11:09:25;;;;;;;;;20.00;18.20;;;;;34.62;29.52;99791.75;5093990;28;8849;-59
2023/06/12 11:11:53;;;;;;;;;22.60;21.40;;;;;34.95;29.31;99788.31;5094393;28;9600;-58
2023/06/12 11:14:22;;;;;;;;;17.60;16.60;;;;;35.34;29.12;99793.97;5094640;28;8848;-58
2023/06/12 11:16:50;;;;;;;;;15.60;14.80;;;;;35.69;28.01;99786.25;5094197;28;8876;-58
2023/06/12 11:19:19;;;;;;;;;16.00;15.80;;;;;35.92;27.82;99785.50;5094800;28;8838;-59
2023/06/12 11:21:47;;;;;;;;;12.00;12.00;;;;;35.98;28.13;99782.38;5094192;28;8846;-58
2023/06/12 11:24:15;;;;;;;;;15.60;15.00;;;;;36.12;27.32;99790.88;5094121;28;8891;-57
2023/06/12 11:26:43;;;;;;;;;16.80;15.00;;;;;35.61;27.69;99786.00;5094775;28;8841;-58
2023/06/12 11:29:11;;;;;;;;;18.40;17.40;;;;;34.37;29.10;99794.59;5094186;28;8864;-58
2023/06/12 11:31:39;;;;;;;;;13.40;12.00;;;;;33.20;30.14;99795.81;5094724;28;9741;-58
2023/06/12 11:34:07;;;;;;;;;15.60;14.40;;;;;32.18;31.32;99794.72;5094861;28;8888;-57